createdAt,value
2019-01-28T00:01:42.053Z,79.06
2019-01-28T00:04:13.554Z,78.67
2019-01-28T00:06:44.042Z,78.00
2019-01-28T00:09:14.349Z,77.95
2019-01-28T00:11:45.876Z,78.84
2019-01-28T00:14:15.755Z,77.54
2019-01-28T00:16:49.090Z,78.57
2019-01-28T00:19:18.371Z,78.55
2019-01-28T00:21:52.074Z,78.54
2019-01-28T00:24:22.269Z,78.87
2019-01-28T00:26:58.118Z,79.03
2019-01-28T00:29:27.891Z,78.76
2019-01-28T00:31:56.982Z,78.71
2019-01-28T00:34:26.158Z,77.57
2019-01-28T00:36:56.485Z,79.11
2019-01-28T00:39:25.587Z,78.83
2019-01-28T00:41:57.140Z,79.21
2019-01-28T00:44:26.265Z,79.37
2019-01-28T00:46:55.331Z,79.36
2019-01-28T00:49:24.761Z,78.58
2019-01-28T00:51:53.845Z,78.72
2019-01-28T00:54:22.942Z,78.52
2019-01-28T00:56:54.595Z,78.01
2019-01-28T00:59:23.678Z,78.28
2019-01-28T01:01:54.254Z,78.19
2019-01-28T01:04:25.755Z,77.90
2019-01-28T01:06:54.847Z,77.01
2019-01-28T01:09:23.932Z,77.34
2019-01-28T01:11:53.087Z,77.15
2019-01-28T01:14:22.123Z,77.03
2019-01-28T01:16:51.317Z,75.22
2019-01-28T01:19:21.841Z,76.59
2019-01-28T01:22:00.195Z,76.26
2019-01-28T01:24:29.274Z,76.51
2019-01-28T01:26:59.665Z,75.37
2019-01-28T01:29:45.277Z,76.56
2019-01-28T01:32:14.439Z,76.47
2019-01-28T01:34:43.517Z,76.73
2019-01-28T01:37:12.991Z,77.92
2019-01-28T01:39:44.601Z,77.08
2019-01-28T01:42:13.711Z,77.48
2019-01-28T01:44:43.000Z,77.53
2019-01-28T01:47:18.012Z,76.97
2019-01-28T01:49:48.725Z,77.47
2019-01-28T01:52:18.058Z,76.77
2019-01-28T01:54:47.137Z,75.92
2019-01-28T01:57:17.989Z,75.52
2019-01-28T01:59:47.097Z,76.23
2019-01-28T02:02:16.210Z,75.59
2019-01-28T02:04:45.280Z,75.64
2019-01-28T02:07:15.546Z,76.30
2019-01-28T02:09:50.229Z,75.45
2019-01-28T02:12:19.354Z,75.81
2019-01-28T02:14:48.708Z,76.21
2019-01-28T02:17:21.485Z,76.54
2019-01-28T02:19:55.327Z,76.30
2019-01-28T02:22:27.404Z,76.59
2019-01-28T02:25:01.187Z,76.14
2019-01-28T02:27:35.701Z,76.34
2019-01-28T02:30:06.046Z,76.97
2019-01-28T02:32:35.361Z,76.50
2019-01-28T02:35:06.405Z,76.30
2019-01-28T02:37:37.258Z,76.30
2019-01-28T02:40:12.588Z,75.60
2019-01-28T02:42:43.533Z,76.13
2019-01-28T02:45:15.641Z,76.37
2019-01-28T02:47:52.287Z,75.64
2019-01-28T02:50:21.455Z,75.53
2019-01-28T02:52:52.295Z,74.95
2019-01-28T02:55:21.605Z,75.00
2019-01-28T02:57:52.409Z,75.53
2019-01-28T03:00:28.210Z,76.08
2019-01-28T03:03:02.728Z,76.18
2019-01-28T03:05:31.818Z,75.57
2019-01-28T03:08:00.999Z,75.30
2019-01-28T03:10:30.130Z,74.52
2019-01-28T03:13:03.346Z,74.78
2019-01-28T03:15:32.526Z,74.61
2019-01-28T03:18:04.126Z,75.60
2019-01-28T03:20:33.198Z,75.63
2019-01-28T03:23:02.353Z,75.06
2019-01-28T03:25:31.494Z,74.72
2019-01-28T03:28:01.936Z,73.87
2019-01-28T03:30:31.329Z,73.42
2019-01-28T03:33:00.405Z,71.33
2019-01-28T03:35:29.518Z,71.66
2019-01-28T03:37:58.620Z,72.49
2019-01-28T03:40:27.727Z,73.07
2019-01-28T03:42:56.797Z,73.96
2019-01-28T03:45:26.141Z,73.60
2019-01-28T03:48:01.280Z,73.93
2019-01-28T03:50:32.123Z,74.09
2019-01-28T03:53:05.087Z,73.68
2019-01-28T03:55:34.243Z,74.52
2019-01-28T03:58:06.550Z,74.16
2019-01-28T04:00:35.707Z,74.80
2019-01-28T04:03:05.858Z,75.23
2019-01-28T04:05:35.011Z,75.37
2019-01-28T04:08:04.372Z,74.90
2019-01-28T04:10:33.435Z,75.21
2019-01-28T04:13:08.556Z,75.72
2019-01-28T04:15:33.499Z,76.66
2019-01-28T04:18:06.048Z,76.73
2019-01-28T04:20:38.937Z,76.99
2019-01-28T04:23:10.405Z,77.31
2019-01-28T04:25:39.892Z,77.29
2019-01-28T04:28:09.824Z,76.54
2019-01-28T04:30:38.903Z,77.09
2019-01-28T04:33:10.825Z,76.96
2019-01-28T04:35:39.951Z,77.89
2019-01-28T04:38:09.113Z,77.67
2019-01-28T04:40:38.200Z,77.52
2019-01-28T04:43:07.379Z,78.15
2019-01-28T04:45:36.506Z,78.71
2019-01-28T04:48:05.992Z,79.66
2019-01-28T04:50:39.498Z,80.04
2019-01-28T04:53:08.570Z,79.19
2019-01-28T04:55:37.714Z,79.39
2019-01-28T04:58:06.883Z,79.91
2019-01-28T05:00:37.584Z,80.28
2019-01-28T05:03:09.715Z,80.17
2019-01-28T05:05:38.836Z,80.25
2019-01-28T05:08:08.469Z,81.78
2019-01-28T05:10:40.571Z,81.53
2019-01-28T05:13:21.904Z,80.57
2019-01-28T05:15:51.022Z,81.57
2019-01-28T05:18:21.810Z,80.58
2019-01-28T05:20:51.141Z,81.81
2019-01-28T05:23:20.289Z,81.78
2019-01-28T05:25:54.484Z,81.21
2019-01-28T05:28:24.675Z,80.89
2019-01-28T05:30:54.542Z,81.78
2019-01-28T05:33:23.702Z,80.88
2019-01-28T05:35:54.330Z,81.46
2019-01-28T05:38:23.821Z,80.87
2019-01-28T05:40:53.221Z,81.16
2019-01-28T05:43:27.061Z,80.81
2019-01-28T05:46:01.696Z,81.33
2019-01-28T05:48:32.536Z,82.14
2019-01-28T05:51:03.206Z,81.71
2019-01-28T05:53:32.326Z,83.13
2019-01-28T05:56:09.746Z,83.42
2019-01-28T05:58:40.474Z,84.13
2019-01-28T06:01:10.028Z,83.55
2019-01-28T06:03:39.171Z,83.84
2019-01-28T06:06:08.266Z,83.18
2019-01-28T06:08:38.634Z,81.75
2019-01-28T06:11:07.941Z,81.71
2019-01-28T06:13:39.504Z,80.88
2019-01-28T06:16:13.201Z,81.94
2019-01-28T06:18:46.232Z,81.51
2019-01-28T06:21:15.825Z,81.28
2019-01-28T06:23:46.124Z,81.52
2019-01-28T06:26:17.939Z,82.69
2019-01-28T06:28:47.835Z,82.78
2019-01-28T06:31:19.043Z,83.33
2019-01-28T06:33:53.309Z,83.27
2019-01-28T06:36:22.416Z,81.10
2019-01-28T06:38:54.457Z,80.64
2019-01-28T06:41:23.801Z,80.22
2019-01-28T06:43:56.164Z,80.94
2019-01-28T06:46:25.270Z,82.42
2019-01-28T06:48:54.585Z,81.67
2019-01-28T06:51:24.225Z,81.89
2019-01-28T06:53:56.465Z,82.54
2019-01-28T06:56:26.965Z,83.12
2019-01-28T06:58:58.590Z,82.93
2019-01-28T07:01:39.547Z,82.35
2019-01-28T07:04:12.815Z,82.95
2019-01-28T07:06:44.110Z,83.44
2019-01-28T07:09:14.751Z,82.73
2019-01-28T07:11:45.306Z,83.17
2019-01-28T07:14:14.382Z,82.99
2019-01-28T07:16:48.956Z,82.81
2019-01-28T07:19:18.075Z,81.71
2019-01-28T07:21:47.175Z,83.01
2019-01-28T07:24:18.459Z,82.60
2019-01-28T07:26:52.675Z,83.43
2019-01-28T07:29:22.198Z,83.54
2019-01-28T07:31:51.363Z,83.43
2019-01-28T07:34:22.060Z,83.51
2019-01-28T07:36:52.389Z,83.71
2019-01-28T07:39:26.836Z,82.18
2019-01-28T07:41:56.732Z,82.73
2019-01-28T07:44:27.710Z,82.97
2019-01-28T07:46:56.869Z,82.84
2019-01-28T07:49:40.146Z,84.23
2019-01-28T07:52:00.599Z,84.14
2019-01-28T07:54:29.761Z,83.89
2019-01-28T07:57:01.860Z,84.02
2019-01-28T07:59:32.962Z,84.09
2019-01-28T08:02:08.477Z,84.24
2019-01-28T08:04:38.968Z,84.24
2019-01-28T08:07:08.266Z,84.50
2019-01-28T08:09:40.047Z,84.49
2019-01-28T08:12:12.066Z,84.31
2019-01-28T08:14:41.276Z,85.10
2019-01-28T08:17:17.617Z,85.71
2019-01-28T08:19:46.710Z,85.53
2019-01-28T08:22:17.434Z,86.18
2019-01-28T08:24:54.426Z,85.90
2019-01-28T08:27:26.895Z,85.97
2019-01-28T08:29:57.293Z,85.72
2019-01-28T08:32:26.665Z,85.47
2019-01-28T08:34:58.904Z,85.25
2019-01-28T08:37:29.345Z,85.66
2019-01-28T08:39:59.548Z,85.71
2019-01-28T08:42:31.364Z,84.54
2019-01-28T08:45:02.097Z,85.49
2019-01-28T08:47:41.506Z,84.64
2019-01-28T08:50:12.950Z,85.00
2019-01-28T08:52:48.996Z,84.32
2019-01-28T08:55:19.991Z,83.96
2019-01-28T08:57:53.062Z,83.70
2019-01-28T09:00:25.585Z,83.92
2019-01-28T09:02:56.561Z,83.96
2019-01-28T09:05:28.548Z,83.48
2019-01-28T09:08:04.285Z,83.23
2019-01-28T09:10:34.719Z,83.28
2019-01-28T09:13:09.022Z,83.74
2019-01-28T09:15:38.550Z,83.46
2019-01-28T09:18:09.587Z,83.16
2019-01-28T09:20:41.410Z,83.50
2019-01-28T09:23:11.897Z,84.14
2019-01-28T09:25:42.051Z,82.97
2019-01-28T09:28:22.210Z,83.37
2019-01-28T09:30:51.812Z,82.48
2019-01-28T09:33:27.054Z,81.39
2019-01-28T09:35:58.633Z,81.96
2019-01-28T09:38:28.601Z,80.98
2019-01-28T09:40:57.977Z,82.74
2019-01-28T09:43:29.701Z,83.05
2019-01-28T09:46:02.890Z,81.64
2019-01-28T09:48:35.012Z,82.52
2019-01-28T09:51:07.747Z,82.88
2019-01-28T09:53:43.051Z,82.71
2019-01-28T09:56:12.858Z,83.21
2019-01-28T09:59:04.070Z,83.07
2019-01-28T10:01:34.773Z,83.53
2019-01-28T10:04:05.642Z,83.16
2019-01-28T10:06:36.612Z,83.37
2019-01-28T10:09:11.610Z,82.90
2019-01-28T10:11:41.780Z,83.39
2019-01-28T10:14:11.000Z,84.47
2019-01-28T10:16:59.982Z,84.54
2019-01-28T10:19:16.649Z,83.91
2019-01-28T10:21:47.111Z,84.32
2019-01-28T10:24:17.862Z,84.05
2019-01-28T10:26:48.723Z,84.13
2019-01-28T10:29:18.236Z,84.69
2019-01-28T10:31:50.953Z,84.18
2019-01-28T10:34:20.127Z,85.29
2019-01-28T10:36:51.299Z,85.29
2019-01-28T10:39:22.681Z,84.69
2019-01-28T10:41:54.704Z,85.31
2019-01-28T10:44:28.540Z,84.63
2019-01-28T10:46:59.410Z,84.34
2019-01-28T10:49:30.198Z,84.25
2019-01-28T10:52:00.007Z,85.86
2019-01-28T10:54:31.484Z,85.46
2019-01-28T10:57:02.874Z,85.49
2019-01-28T10:59:34.952Z,85.99
2019-01-28T11:02:08.279Z,84.42
2019-01-28T11:04:37.858Z,83.66
2019-01-28T11:07:07.075Z,84.04
2019-01-28T11:09:40.200Z,84.84
2019-01-28T11:12:10.658Z,85.28
2019-01-28T11:14:47.692Z,85.04
2019-01-28T11:17:29.830Z,85.10
2019-01-28T11:20:01.475Z,86.02
2019-01-28T11:22:30.611Z,84.50
2019-01-28T11:25:01.732Z,84.03
2019-01-28T11:27:32.434Z,84.30
2019-01-28T11:30:02.116Z,84.22
2019-01-28T11:32:31.839Z,84.74
2019-01-28T11:35:01.184Z,84.75
2019-01-28T11:37:33.537Z,83.59
2019-01-28T11:40:02.975Z,84.51
2019-01-28T11:42:32.129Z,84.21
2019-01-28T11:45:07.974Z,84.81
2019-01-28T11:47:37.037Z,84.71
2019-01-28T11:50:06.752Z,84.80
2019-01-28T11:52:47.036Z,84.08
2019-01-28T11:55:21.160Z,83.87
2019-01-28T11:57:50.538Z,84.56
2019-01-28T12:00:28.481Z,84.79
2019-01-28T12:02:57.587Z,84.49
2019-01-28T12:05:26.715Z,84.08
2019-01-28T12:08:02.271Z,84.27
2019-01-28T12:10:37.288Z,85.03
2019-01-28T12:13:11.653Z,84.34
2019-01-28T12:15:43.734Z,84.33
2019-01-28T12:18:13.358Z,84.59
2019-01-28T12:20:53.188Z,84.17
2019-01-28T12:23:18.397Z,84.56
2019-01-28T12:25:51.043Z,84.16
2019-01-28T12:28:21.873Z,84.16
2019-01-28T12:30:56.101Z,84.43
2019-01-28T12:33:25.394Z,84.93
2019-01-28T12:35:55.634Z,83.82
2019-01-28T12:38:24.747Z,84.39
2019-01-28T12:40:56.304Z,84.29
2019-01-28T12:43:25.422Z,84.41
2019-01-28T12:45:54.538Z,83.95
2019-01-28T12:48:23.688Z,83.59
2019-01-28T12:50:56.512Z,83.43
2019-01-28T12:53:25.844Z,83.32
2019-01-28T12:56:02.690Z,82.72
2019-01-28T12:58:33.734Z,83.27
2019-01-28T13:01:03.690Z,82.06
2019-01-28T13:03:38.822Z,82.64
2019-01-28T13:06:13.927Z,82.89
2019-01-28T13:08:43.505Z,84.24
2019-01-28T13:11:13.261Z,84.19
2019-01-28T13:13:42.464Z,84.51
2019-01-28T13:16:12.589Z,83.04
2019-01-28T13:18:43.525Z,83.40
2019-01-28T13:21:12.858Z,84.07
2019-01-28T13:23:45.493Z,83.90
2019-01-28T13:26:14.695Z,83.47
2019-01-28T13:28:43.808Z,83.66
2019-01-28T13:31:12.916Z,83.86
2019-01-28T13:33:43.986Z,83.97
2019-01-28T13:36:13.164Z,84.32
2019-01-28T13:38:44.783Z,83.59
2019-01-28T13:41:14.402Z,83.69
2019-01-28T13:43:48.979Z,84.76
2019-01-28T13:46:18.153Z,84.82
2019-01-28T13:48:47.244Z,84.85
2019-01-28T13:51:17.516Z,84.27
2019-01-28T13:53:46.647Z,83.33
2019-01-28T13:56:18.724Z,84.25
2019-01-28T13:58:54.304Z,84.46
2019-01-28T14:01:23.664Z,83.54
2019-01-28T14:03:56.446Z,83.45
2019-01-28T14:06:25.830Z,84.06
2019-01-28T14:08:57.992Z,83.90
2019-01-28T14:11:28.827Z,84.60
2019-01-28T14:13:59.891Z,85.05
2019-01-28T14:16:29.094Z,85.42
2019-01-28T14:19:01.678Z,85.37
2019-01-28T14:21:30.856Z,85.42
2019-01-28T14:24:01.442Z,85.64
2019-01-28T14:26:31.494Z,85.28
2019-01-28T14:29:02.365Z,85.78
2019-01-28T14:31:31.485Z,85.60
2019-01-28T14:34:00.943Z,85.41
2019-01-28T14:36:36.164Z,85.84
2019-01-28T14:39:13.675Z,85.75
2019-01-28T14:41:51.267Z,84.93
2019-01-28T14:44:25.409Z,83.93
2019-01-28T14:46:57.705Z,85.07
2019-01-28T14:49:32.389Z,84.26
2019-01-28T14:52:06.354Z,83.53
2019-01-28T14:54:38.740Z,84.49
2019-01-28T14:57:11.092Z,85.28
2019-01-28T14:59:42.057Z,85.58
2019-01-28T15:02:14.949Z,85.15
2019-01-28T15:04:43.938Z,85.37
2019-01-28T15:07:14.007Z,84.80
2019-01-28T15:09:43.472Z,85.11
2019-01-28T15:12:12.582Z,85.53
2019-01-28T15:14:44.570Z,86.25
2019-01-28T15:17:13.947Z,86.29
2019-01-28T15:19:50.463Z,86.37
2019-01-28T15:22:17.274Z,86.77
2019-01-28T15:24:52.384Z,87.00
2019-01-28T15:27:25.102Z,86.68
2019-01-28T15:30:00.470Z,86.73
2019-01-28T15:32:29.639Z,86.43
2019-01-28T15:34:58.693Z,87.57
2019-01-28T15:37:28.150Z,87.44
2019-01-28T15:39:58.901Z,88.43
2019-01-28T15:42:29.163Z,87.95
2019-01-28T15:44:59.749Z,87.49
2019-01-28T15:47:33.800Z,87.18
2019-01-28T15:50:10.369Z,87.21
2019-01-28T15:52:33.857Z,87.43
2019-01-28T15:55:06.751Z,87.63
2019-01-28T15:57:34.154Z,87.50
2019-01-28T16:00:03.287Z,87.52
2019-01-28T16:02:37.240Z,87.90
2019-01-28T16:05:13.371Z,87.95
2019-01-28T16:07:43.469Z,88.43
2019-01-28T16:10:15.412Z,87.29
2019-01-28T16:12:44.610Z,87.24
2019-01-28T16:15:28.556Z,86.93
2019-01-28T16:18:02.075Z,88.09
2019-01-28T16:20:38.673Z,87.24
2019-01-28T16:23:09.166Z,87.64
2019-01-28T16:25:38.664Z,87.56
2019-01-28T16:28:13.371Z,88.31
2019-01-28T16:30:45.764Z,88.09
2019-01-28T16:33:15.415Z,88.72
2019-01-28T16:35:44.623Z,88.42
2019-01-28T16:38:18.613Z,88.44
2019-01-28T16:40:48.003Z,88.38
2019-01-28T16:43:21.109Z,88.45
2019-01-28T16:46:02.268Z,88.75
2019-01-28T16:48:34.377Z,88.22
2019-01-28T16:51:03.855Z,87.58
2019-01-28T16:53:34.407Z,87.35
2019-01-28T16:56:11.875Z,86.31
2019-01-28T16:58:48.529Z,86.79
2019-01-28T17:01:17.844Z,86.63
2019-01-28T17:03:48.883Z,86.99
2019-01-28T17:06:19.909Z,87.98
2019-01-28T17:08:49.398Z,87.56
2019-01-28T17:11:19.035Z,87.55
2019-01-28T17:13:50.021Z,87.72
2019-01-28T17:16:19.728Z,87.95
2019-01-28T17:18:54.248Z,87.67
2019-01-28T17:21:23.649Z,88.44
2019-01-28T17:23:54.569Z,88.26
2019-01-28T17:26:25.062Z,88.75
2019-01-28T17:28:54.673Z,88.10
2019-01-28T17:31:23.979Z,88.09
2019-01-28T17:33:53.518Z,88.28
2019-01-28T17:36:38.709Z,88.80
2019-01-28T17:39:08.881Z,87.31
2019-01-28T17:41:40.767Z,87.53
2019-01-28T17:44:09.940Z,87.59
2019-01-28T17:46:41.914Z,87.53
2019-01-28T17:49:11.208Z,86.88
2019-01-28T17:51:41.685Z,86.63
2019-01-28T17:54:12.310Z,87.18
2019-01-28T17:56:45.162Z,87.64
2019-01-28T17:59:16.984Z,87.28
2019-01-28T18:01:49.372Z,87.12
2019-01-28T18:04:19.188Z,86.96
2019-01-28T18:06:54.430Z,86.34
2019-01-28T18:09:24.394Z,85.64
2019-01-28T18:11:53.548Z,86.27
2019-01-28T18:14:22.769Z,87.13
2019-01-28T18:16:52.962Z,87.02
2019-01-28T18:19:23.240Z,86.95
2019-01-28T18:21:54.689Z,86.40
2019-01-28T18:24:23.840Z,86.70
2019-01-28T18:26:54.362Z,86.49
2019-01-28T18:29:25.975Z,86.50
2019-01-28T18:31:55.291Z,85.65
2019-01-28T18:34:29.006Z,86.04
2019-01-28T18:36:59.663Z,85.53
2019-01-28T18:39:31.293Z,84.70
2019-01-28T18:42:01.869Z,86.13
2019-01-28T18:44:33.658Z,86.37
2019-01-28T18:47:03.853Z,86.65
2019-01-28T18:49:38.141Z,86.05
2019-01-28T18:52:07.291Z,86.44
2019-01-28T18:54:39.318Z,86.36
2019-01-28T18:57:08.701Z,85.69
2019-01-28T18:59:37.802Z,86.19
2019-01-28T19:02:11.284Z,85.39
2019-01-28T19:04:42.284Z,85.15
2019-01-28T19:07:33.398Z,84.61
2019-01-28T19:10:16.323Z,84.12
2019-01-28T19:13:07.737Z,84.23
2019-01-28T19:16:05.419Z,83.24
2019-01-28T19:18:53.993Z,82.19
2019-01-28T19:21:30.292Z,82.68
2019-01-28T19:23:59.863Z,82.07
2019-01-28T19:26:29.142Z,82.89
2019-01-28T19:29:02.953Z,81.88
2019-01-28T19:31:35.330Z,82.15
2019-01-28T19:34:05.945Z,83.06
2019-01-28T19:36:40.979Z,82.93
2019-01-28T19:39:10.903Z,82.58
2019-01-28T19:41:40.104Z,81.89
2019-01-28T19:44:12.701Z,82.32
2019-01-28T19:46:41.845Z,82.05
2019-01-28T19:49:13.116Z,81.84
2019-01-28T19:51:41.946Z,82.06
2019-01-28T19:54:11.105Z,82.45
2019-01-28T19:56:40.342Z,81.10
2019-01-28T19:59:10.215Z,81.95
2019-01-28T20:01:41.039Z,81.53
2019-01-28T20:04:16.158Z,81.58
2019-01-28T20:06:45.301Z,81.03
2019-01-28T20:09:14.561Z,80.33
2019-01-28T20:11:43.713Z,81.65
2019-01-28T20:14:12.847Z,81.19
2019-01-28T20:16:42.052Z,80.90
2019-01-28T20:19:14.003Z,81.04
2019-01-28T20:21:43.308Z,80.88
2019-01-28T20:24:14.775Z,80.49
2019-01-28T20:27:04.590Z,81.21
2019-01-28T20:29:36.502Z,79.94
2019-01-28T20:32:08.988Z,79.71
2019-01-28T20:34:43.295Z,80.33
2019-01-28T20:37:09.171Z,81.08
2019-01-28T20:39:38.339Z,81.61
2019-01-28T20:42:07.441Z,80.23
2019-01-28T20:44:37.776Z,80.15
2019-01-28T20:47:09.690Z,79.93
2019-01-28T20:49:42.453Z,81.16
2019-01-28T20:52:13.616Z,79.66
2019-01-28T20:54:43.647Z,80.89
2019-01-28T20:57:12.786Z,81.48
2019-01-28T20:59:43.044Z,80.57
2019-01-28T21:02:16.785Z,80.92
2019-01-28T21:04:45.852Z,81.58
2019-01-28T21:07:16.127Z,81.58
2019-01-28T21:09:46.303Z,80.91
2019-01-28T21:12:17.342Z,80.12
2019-01-28T21:14:48.074Z,80.29
2019-01-28T21:17:17.239Z,79.72
2019-01-28T21:19:46.338Z,79.78
2019-01-28T21:22:17.233Z,78.73
2019-01-28T21:24:46.329Z,78.35
2019-01-28T21:27:16.796Z,76.71
2019-01-28T21:29:50.511Z,77.31
2019-01-28T21:32:19.670Z,77.40
2019-01-28T21:34:50.087Z,78.11
2019-01-28T21:37:27.993Z,77.81
2019-01-28T21:39:57.170Z,77.99
2019-01-28T21:42:29.639Z,78.56
2019-01-28T21:45:01.697Z,80.03
2019-01-28T21:47:30.812Z,80.43
2019-01-28T21:49:59.989Z,82.68
2019-01-28T21:52:29.499Z,81.87
2019-01-28T21:55:11.390Z,82.26
2019-01-28T21:57:32.174Z,81.37
2019-01-28T22:00:02.753Z,83.13
2019-01-28T22:02:34.272Z,82.16
2019-01-28T22:05:03.372Z,81.60
2019-01-28T22:07:32.860Z,80.56
2019-01-28T22:10:02.919Z,80.64
2019-01-28T22:12:32.048Z,79.93
2019-01-28T22:15:03.246Z,79.84
2019-01-28T22:17:35.629Z,80.07
2019-01-28T22:20:05.672Z,79.75
2019-01-28T22:22:34.909Z,80.03
2019-01-28T22:25:04.350Z,79.04
2019-01-28T22:27:36.592Z,79.20
2019-01-28T22:30:18.656Z,79.22
2019-01-28T22:32:47.910Z,78.85
2019-01-28T22:35:18.862Z,79.19
2019-01-28T22:37:50.871Z,79.55
2019-01-28T22:40:20.300Z,78.96
2019-01-28T22:42:49.671Z,78.99
2019-01-28T22:45:20.684Z,78.72
2019-01-28T22:47:51.663Z,77.50
2019-01-28T22:50:21.651Z,77.58
2019-01-28T22:52:50.838Z,77.96
2019-01-28T22:55:21.449Z,79.01
2019-01-28T22:57:50.817Z,77.03
2019-01-28T23:00:48.024Z,76.92
2019-01-28T23:03:18.199Z,76.36
2019-01-28T23:05:49.839Z,77.78
2019-01-28T23:08:19.850Z,77.27
2019-01-28T23:10:48.937Z,77.17
2019-01-28T23:13:19.856Z,76.73
2019-01-28T23:15:48.968Z,77.52
2019-01-28T23:18:18.309Z,76.33
2019-01-28T23:20:50.204Z,76.60
2019-01-28T23:23:20.596Z,76.72
2019-01-28T23:25:50.159Z,77.20
2019-01-28T23:28:19.260Z,76.26
2019-01-28T23:30:48.756Z,77.32
2019-01-28T23:33:17.834Z,76.97
2019-01-28T23:35:51.929Z,77.71
2019-01-28T23:38:24.471Z,78.41
2019-01-28T23:40:56.263Z,78.92
2019-01-28T23:43:25.699Z,77.86
2019-01-28T23:45:56.518Z,78.48
2019-01-28T23:48:28.877Z,78.31
2019-01-28T23:50:58.252Z,77.91
2019-01-28T23:53:47.283Z,78.10
2019-01-28T23:56:18.772Z,78.76
2019-01-28T23:58:50.601Z,79.06
